KOLM

Olympia Regional Airport

Olympia, Washington, USA
METAR KOLM 191801Z 17007KT 10SM SCT005 12/09 A3012 RMK AO2 T01170089
Observed Flight Rules
Sep-19 @ 18:01 UTC (47 minutes ago) Visual Flight Rules
Wind Visibility Clouds
170° at 7 knots 10 miles
  • Scattered at 500' AGL
Temperatures Readings
Current 12°C / 54°F
Dewpoint 9°C / 48°F
Humidity 82%
Altimeter 30.12" Hg
Pressure 1020 hPa
Elevation 58
METAR KOLM 191801Z 17007KT 10SM SCT005 12/09 A3012 RMK AO2 T01170089
Observed Flight Rules
Sep-19 @ 18:01 UTC
(47 minutes ago)
VFR
Wind Visibility
170° at 7 knots 10 miles
Clouds
  • Scattered at 500' AGL
Temperature Dewpoint
12°C / 54°F 9°C / 48°F
Humidity Altimeter Pressure
82% 30.12" Hg 1020 hPa